createdAt,value
2019-02-25T00:00:56.161Z,14.95
2019-02-25T00:03:22.856Z,13.83
2019-02-25T00:05:49.422Z,15.35
2019-02-25T00:08:16.032Z,12.80
2019-02-25T00:10:42.576Z,14.80
2019-02-25T00:13:09.214Z,13.85
2019-02-25T00:15:35.788Z,14.53
2019-02-25T00:18:02.361Z,13.78
2019-02-25T00:20:28.899Z,16.40
2019-02-25T00:22:55.480Z,13.80
2019-02-25T00:25:22.028Z,13.83
2019-02-25T00:27:48.596Z,16.42
2019-02-25T00:30:15.171Z,14.98
2019-02-25T00:32:41.741Z,16.17
2019-02-25T00:35:08.301Z,12.07
2019-02-25T00:37:34.880Z,19.27
2019-02-25T00:40:01.511Z,14.05
2019-02-25T00:42:28.086Z,11.70
2019-02-25T00:44:54.653Z,12.98
2019-02-25T00:47:21.250Z,15.28
2019-02-25T00:49:47.813Z,15.50
2019-02-25T00:52:14.466Z,11.35
2019-02-25T00:54:41.033Z,14.70
2019-02-25T00:57:09.058Z,16.82
2019-02-25T00:59:35.758Z,15.15
2019-02-25T01:02:02.340Z,12.23
2019-02-25T01:04:28.911Z,10.75
2019-02-25T01:06:55.447Z,16.30
2019-02-25T01:09:22.028Z,9.98
2019-02-25T01:11:48.567Z,12.93
2019-02-25T01:14:15.127Z,12.43
2019-02-25T01:16:41.774Z,10.90
2019-02-25T01:19:08.344Z,18.32
2019-02-25T01:21:34.904Z,17.70
2019-02-25T01:24:01.463Z,12.15
2019-02-25T01:26:28.055Z,13.08
2019-02-25T01:28:54.626Z,13.68
2019-02-25T01:31:21.244Z,13.40
2019-02-25T01:33:47.819Z,11.45
2019-02-25T01:36:14.359Z,14.10
2019-02-25T01:38:40.934Z,14.20
2019-02-25T01:41:07.486Z,10.93
2019-02-25T01:43:34.072Z,12.65
2019-02-25T01:46:00.618Z,11.80
2019-02-25T01:48:27.155Z,11.18
2019-02-25T01:50:53.718Z,10.78
2019-02-25T01:53:20.268Z,12.58
2019-02-25T01:55:46.845Z,12.73
2019-02-25T01:58:13.387Z,10.08
2019-02-25T02:00:39.950Z,12.93
2019-02-25T02:03:06.530Z,10.53
2019-02-25T02:05:33.097Z,13.98
2019-02-25T02:07:59.675Z,11.65
2019-02-25T02:10:26.257Z,10.68
2019-02-25T02:12:52.815Z,9.45
2019-02-25T02:15:19.461Z,12.63
2019-02-25T02:17:46.016Z,12.18
2019-02-25T02:20:16.829Z,12.65
2019-02-25T02:25:09.967Z,11.97
2019-02-25T02:27:36.705Z,10.43
2019-02-25T02:30:09.236Z,10.80
2019-02-25T02:32:35.822Z,12.33
2019-02-25T02:35:07.243Z,10.43
2019-02-25T02:37:36.535Z,8.78
2019-02-25T02:40:06.435Z,10.13
2019-02-25T02:42:35.814Z,12.27
2019-02-25T02:45:19.438Z,9.38
2019-02-25T02:47:58.498Z,7.85
2019-02-25T02:50:25.783Z,16.05
2019-02-25T02:52:52.760Z,11.45
2019-02-25T02:55:19.691Z,11.78
2019-02-25T02:57:47.629Z,12.13
2019-02-25T03:00:18.387Z,11.35
2019-02-25T03:02:46.510Z,9.75
2019-02-25T03:05:17.365Z,10.45
2019-02-25T03:10:11.789Z,11.93
2019-02-25T03:12:38.700Z,11.60
2019-02-25T03:15:10.738Z,9.98
2019-02-25T03:17:38.121Z,12.18
2019-02-25T03:20:08.996Z,11.43
2019-02-25T03:25:06.581Z,10.65
2019-02-25T03:27:34.339Z,8.60
2019-02-25T03:30:09.466Z,10.63
2019-02-25T03:32:36.554Z,10.05
2019-02-25T03:35:04.463Z,10.25
2019-02-25T03:37:31.539Z,8.80
2019-02-25T03:39:58.417Z,9.00
2019-02-25T03:42:26.627Z,9.53
2019-02-25T03:44:54.464Z,10.58
2019-02-25T03:47:31.132Z,9.90
2019-02-25T03:49:57.847Z,11.25
2019-02-25T03:52:24.832Z,9.25
2019-02-25T03:54:51.726Z,12.18
2019-02-25T03:57:20.905Z,9.53
2019-02-25T03:59:48.273Z,11.43
2019-02-25T04:02:15.634Z,10.30
2019-02-25T04:04:52.384Z,11.05
2019-02-25T04:07:21.128Z,13.38
2019-02-25T04:09:48.267Z,11.08
2019-02-25T04:12:16.014Z,11.55
2019-02-25T04:14:45.517Z,10.48
2019-02-25T04:17:14.369Z,10.53
2019-02-25T04:19:41.572Z,12.82
2019-02-25T04:22:08.509Z,14.50
2019-02-25T04:24:36.147Z,11.80
2019-02-25T04:27:05.948Z,12.88
2019-02-25T04:29:33.162Z,12.33
2019-02-25T04:32:02.485Z,11.00
2019-02-25T04:34:29.286Z,11.03
2019-02-25T04:36:57.534Z,11.35
2019-02-25T04:39:28.298Z,11.65
2019-02-25T04:41:56.012Z,12.35
2019-02-25T04:44:24.012Z,15.00
2019-02-25T04:46:54.153Z,12.80
2019-02-25T04:49:21.281Z,15.35
2019-02-25T04:51:48.546Z,12.13
2019-02-25T04:54:15.618Z,11.35
2019-02-25T04:56:42.517Z,11.95
2019-02-25T04:59:09.638Z,12.58
2019-02-25T05:01:36.574Z,15.05
2019-02-25T05:04:03.454Z,14.85
2019-02-25T05:06:33.332Z,11.90
2019-02-25T05:09:00.690Z,12.57
2019-02-25T05:11:31.677Z,12.20
2019-02-25T05:14:03.007Z,11.33
2019-02-25T05:16:29.938Z,11.53
2019-02-25T05:18:58.154Z,11.97
2019-02-25T05:21:25.062Z,12.47
2019-02-25T05:23:52.166Z,14.07
2019-02-25T05:26:18.981Z,15.08
2019-02-25T05:28:45.993Z,18.95
2019-02-25T05:31:12.827Z,14.10
2019-02-25T05:33:40.106Z,17.02
2019-02-25T05:36:06.997Z,13.32
2019-02-25T05:38:34.266Z,14.65
2019-02-25T05:41:01.239Z,11.30
2019-02-25T05:43:28.231Z,15.95
2019-02-25T05:45:55.539Z,18.67
2019-02-25T05:48:22.408Z,15.60
2019-02-25T05:50:49.686Z,15.18
2019-02-25T05:53:16.966Z,13.78
2019-02-25T05:55:44.278Z,15.05
2019-02-25T05:58:12.234Z,13.30
2019-02-25T06:00:39.440Z,13.18
2019-02-25T06:03:06.669Z,13.10
2019-02-25T06:05:33.884Z,13.05
2019-02-25T06:08:04.726Z,16.25
2019-02-25T06:10:31.647Z,13.25
2019-02-25T06:12:58.545Z,13.62
2019-02-25T06:15:25.414Z,10.75
2019-02-25T06:17:52.340Z,11.03
2019-02-25T06:20:19.695Z,12.78
2019-02-25T06:22:46.896Z,12.30
2019-02-25T06:25:13.787Z,12.50
2019-02-25T06:27:40.712Z,12.43
2019-02-25T06:30:10.196Z,13.80
2019-02-25T06:32:37.107Z,15.38
2019-02-25T06:35:04.786Z,19.42
2019-02-25T06:37:31.985Z,13.90
2019-02-25T06:39:59.200Z,12.43
2019-02-25T06:42:26.135Z,14.35
2019-02-25T06:44:52.982Z,14.30
2019-02-25T06:47:19.875Z,15.60
2019-02-25T06:49:46.715Z,15.23
2019-02-25T06:52:13.571Z,17.00
2019-02-25T06:54:40.430Z,13.70
2019-02-25T06:57:07.298Z,15.20
2019-02-25T06:59:34.133Z,15.78
2019-02-25T07:02:01.336Z,13.45
2019-02-25T07:04:42.469Z,11.03
2019-02-25T07:07:12.754Z,11.73
2019-02-25T07:10:03.428Z,15.78
2019-02-25T07:12:43.310Z,11.88
2019-02-25T07:15:32.307Z,14.30
2019-02-25T07:18:14.852Z,19.00
2019-02-25T07:20:56.907Z,16.97
2019-02-25T07:24:01.626Z,12.20
2019-02-25T07:27:00.227Z,12.75
2019-02-25T07:29:46.466Z,12.40
2019-02-25T07:32:33.954Z,16.25
2019-02-25T07:35:27.714Z,12.18
2019-02-25T07:38:10.988Z,13.18
2019-02-25T07:41:05.013Z,15.85
2019-02-25T07:43:48.969Z,14.15
2019-02-25T07:46:25.212Z,11.65
2019-02-25T07:49:01.307Z,17.32
2019-02-25T07:51:53.697Z,13.95
2019-02-25T07:54:26.934Z,13.28
2019-02-25T07:57:12.604Z,15.10
2019-02-25T07:59:58.809Z,16.35
2019-02-25T08:02:36.614Z,17.92
2019-02-25T08:05:17.685Z,15.23
2019-02-25T08:08:18.615Z,12.40
2019-02-25T08:13:57.000Z,16.40
2019-02-25T08:16:42.623Z,13.98
2019-02-25T08:19:15.324Z,14.00
2019-02-25T08:22:01.534Z,14.78
2019-02-25T08:24:37.789Z,16.85
2019-02-25T08:27:11.460Z,15.03
2019-02-25T08:30:00.509Z,12.98
2019-02-25T08:32:46.217Z,11.55
2019-02-25T08:36:18.199Z,10.50
2019-02-25T08:39:04.900Z,10.70
2019-02-25T08:41:36.748Z,11.48
2019-02-25T08:44:32.957Z,12.18
2019-02-25T08:47:13.100Z,9.63
2019-02-25T08:49:51.068Z,11.70
2019-02-25T08:52:17.620Z,11.40
2019-02-25T08:54:44.221Z,10.70
2019-02-25T08:57:11.781Z,11.22
2019-02-25T08:59:38.352Z,12.20
2019-02-25T09:02:04.903Z,14.38
2019-02-25T09:04:31.473Z,11.38
2019-02-25T09:06:58.386Z,12.18
2019-02-25T09:09:25.257Z,12.03
2019-02-25T09:11:51.830Z,12.65
2019-02-25T09:14:19.420Z,12.20
2019-02-25T09:16:46.232Z,13.35
2019-02-25T09:19:12.790Z,12.28
2019-02-25T09:21:39.728Z,11.38
2019-02-25T09:24:06.277Z,11.95
2019-02-25T09:26:32.839Z,11.93
2019-02-25T09:28:59.407Z,12.00
2019-02-25T09:31:25.993Z,11.53
2019-02-25T09:33:52.904Z,11.03
2019-02-25T09:36:19.535Z,12.00
2019-02-25T09:38:46.770Z,10.80
2019-02-25T09:41:13.437Z,11.73
2019-02-25T09:43:39.982Z,11.55
2019-02-25T09:46:06.573Z,12.43
2019-02-25T09:48:33.127Z,12.55
2019-02-25T09:50:59.719Z,14.10
2019-02-25T09:53:26.726Z,11.97
2019-02-25T09:55:53.318Z,11.75
2019-02-25T09:58:19.900Z,14.18
2019-02-25T10:00:46.505Z,11.55
2019-02-25T10:03:15.166Z,10.93
2019-02-25T10:05:41.706Z,11.08
2019-02-25T10:08:08.260Z,10.95
2019-02-25T10:10:34.885Z,11.10
2019-02-25T10:13:01.731Z,11.18
2019-02-25T10:15:28.571Z,11.10
2019-02-25T10:17:55.151Z,11.80
2019-02-25T10:20:23.147Z,11.25
2019-02-25T10:22:50.046Z,11.05
2019-02-25T10:25:16.619Z,11.22
2019-02-25T10:27:43.190Z,11.53
2019-02-25T10:30:10.353Z,10.50
2019-02-25T10:32:36.930Z,11.15
2019-02-25T10:35:04.562Z,14.07
2019-02-25T10:37:31.141Z,12.73
2019-02-25T10:39:57.745Z,12.15
2019-02-25T10:42:24.314Z,12.10
2019-02-25T10:44:50.858Z,12.70
2019-02-25T10:47:19.882Z,10.58
2019-02-25T10:49:46.241Z,11.03
2019-02-25T10:52:13.420Z,10.98
2019-02-25T10:54:41.278Z,11.93
2019-02-25T10:57:14.726Z,11.10
2019-02-25T10:59:41.554Z,10.70
2019-02-25T11:02:09.094Z,10.00
2019-02-25T11:04:36.719Z,11.45
2019-02-25T11:07:05.205Z,10.28
2019-02-25T11:09:45.672Z,10.20
2019-02-25T11:12:12.317Z,10.13
2019-02-25T11:14:40.933Z,9.90
2019-02-25T11:17:07.356Z,10.25
2019-02-25T11:19:33.900Z,9.95
2019-02-25T11:22:00.496Z,9.93
2019-02-25T11:24:27.084Z,10.15
2019-02-25T11:26:53.656Z,9.38
2019-02-25T11:29:24.575Z,9.75
2019-02-25T11:31:56.566Z,10.10
2019-02-25T11:34:24.675Z,10.40
2019-02-25T11:36:54.446Z,9.53
2019-02-25T11:39:20.406Z,8.50
2019-02-25T11:41:46.977Z,9.65
2019-02-25T11:44:14.311Z,10.72
2019-02-25T11:46:41.276Z,10.53
2019-02-25T11:49:08.354Z,10.15
2019-02-25T11:51:34.921Z,12.58
2019-02-25T11:54:01.474Z,11.70
2019-02-25T11:56:28.098Z,9.98
2019-02-25T11:58:54.704Z,11.03
2019-02-25T12:01:21.272Z,9.75
2019-02-25T12:03:47.851Z,8.63
2019-02-25T12:06:14.400Z,8.83
2019-02-25T12:08:40.969Z,8.95
2019-02-25T12:11:08.735Z,8.33
2019-02-25T12:13:35.487Z,9.75
2019-02-25T12:16:02.160Z,8.25
2019-02-25T12:18:28.738Z,8.65
2019-02-25T12:20:55.293Z,8.15
2019-02-25T12:23:21.860Z,7.85
2019-02-25T12:25:48.598Z,8.80
2019-02-25T12:28:15.203Z,8.55
2019-02-25T12:30:41.774Z,8.15
2019-02-25T12:33:08.368Z,7.58
2019-02-25T12:35:34.921Z,8.48
2019-02-25T12:38:01.530Z,8.75
2019-02-25T12:40:28.103Z,9.45
2019-02-25T12:42:54.721Z,7.97
2019-02-25T12:45:21.259Z,6.95
2019-02-25T12:47:47.829Z,8.18
2019-02-25T12:50:14.433Z,6.95
2019-02-25T12:52:41.301Z,11.10
2019-02-25T12:55:08.919Z,8.05
2019-02-25T12:57:35.504Z,6.75
2019-02-25T13:00:02.166Z,5.72
2019-02-25T13:02:28.750Z,4.85
2019-02-25T13:04:55.321Z,5.53
2019-02-25T13:07:21.870Z,4.53
2019-02-25T13:09:48.427Z,5.37
2019-02-25T13:12:14.982Z,5.33
2019-02-25T13:14:41.577Z,4.10
2019-02-25T13:17:08.129Z,5.15
2019-02-25T13:19:34.707Z,3.55
2019-02-25T13:22:01.632Z,5.90
2019-02-25T13:24:30.043Z,3.05
2019-02-25T13:26:56.660Z,3.33
2019-02-25T13:29:23.284Z,3.05
2019-02-25T13:31:50.181Z,2.90
2019-02-25T13:34:16.807Z,2.35
2019-02-25T13:36:43.365Z,2.90
2019-02-25T13:39:09.950Z,1.52
2019-02-25T13:41:36.526Z,4.80
2019-02-25T13:44:03.215Z,1.85
2019-02-25T13:46:29.758Z,3.15
2019-02-25T13:48:57.531Z,3.42
2019-02-25T13:51:24.285Z,4.55
2019-02-25T13:53:50.829Z,3.77
2019-02-25T13:56:17.414Z,5.62
2019-02-25T13:58:43.978Z,4.05
2019-02-25T14:01:10.543Z,2.90
2019-02-25T14:03:37.114Z,3.67
2019-02-25T14:06:03.728Z,4.42
2019-02-25T14:08:30.307Z,3.92
2019-02-25T14:10:57.117Z,5.10
2019-02-25T14:13:23.667Z,4.03
2019-02-25T14:15:50.260Z,4.60
2019-02-25T14:18:16.830Z,3.92
2019-02-25T14:20:43.417Z,5.53
2019-02-25T14:23:09.995Z,3.85
2019-02-25T14:25:38.403Z,3.60
2019-02-25T14:28:07.918Z,4.22
2019-02-25T14:30:34.026Z,4.47
2019-02-25T14:33:00.605Z,3.25
2019-02-25T14:35:28.528Z,5.95
2019-02-25T14:37:59.094Z,2.70
2019-02-25T14:40:26.236Z,2.40
2019-02-25T14:42:54.688Z,3.25
2019-02-25T14:45:21.954Z,3.02
2019-02-25T14:47:52.665Z,3.40
2019-02-25T14:50:18.287Z,2.42
2019-02-25T14:52:44.844Z,5.70
2019-02-25T14:55:13.163Z,2.77
2019-02-25T14:57:40.851Z,2.67
2019-02-25T15:00:11.194Z,2.70
2019-02-25T15:02:38.985Z,6.93
2019-02-25T15:05:06.137Z,3.90
2019-02-25T15:07:33.390Z,3.25
2019-02-25T15:10:01.884Z,4.70
2019-02-25T15:12:32.091Z,5.47
2019-02-25T15:15:00.197Z,4.05
2019-02-25T15:17:27.357Z,5.35
2019-02-25T15:19:53.908Z,5.60
2019-02-25T15:22:20.490Z,5.08
2019-02-25T15:24:48.269Z,5.15
2019-02-25T15:27:16.300Z,5.03
2019-02-25T15:29:44.709Z,6.62
2019-02-25T15:32:11.448Z,10.45
2019-02-25T15:34:37.985Z,7.55
2019-02-25T15:37:05.277Z,9.00
2019-02-25T15:39:33.109Z,8.70
2019-02-25T15:41:59.691Z,7.30
2019-02-25T15:44:28.311Z,9.68
2019-02-25T15:46:57.873Z,7.62
2019-02-25T15:49:26.075Z,8.40
2019-02-25T15:51:53.483Z,7.75
2019-02-25T15:54:20.546Z,8.63
2019-02-25T15:56:47.129Z,7.75
2019-02-25T15:59:13.694Z,13.38
2019-02-25T16:01:40.539Z,6.92
2019-02-25T16:04:09.154Z,6.58
2019-02-25T16:06:37.519Z,7.10
2019-02-25T16:09:06.307Z,8.30
2019-02-25T16:11:39.182Z,8.63
2019-02-25T16:14:07.032Z,6.20
2019-02-25T16:16:34.569Z,6.40
2019-02-25T16:19:01.120Z,9.78
2019-02-25T16:21:27.665Z,8.28
2019-02-25T16:23:54.230Z,6.33
2019-02-25T16:26:20.785Z,8.08
2019-02-25T16:28:47.466Z,8.00
2019-02-25T16:31:14.838Z,9.93
2019-02-25T16:33:41.786Z,11.53
2019-02-25T16:36:09.958Z,10.95
2019-02-25T16:38:36.622Z,7.33
2019-02-25T16:41:05.505Z,8.30
2019-02-25T16:43:31.652Z,9.48
2019-02-25T16:45:59.518Z,8.60
2019-02-25T16:48:28.183Z,9.05
2019-02-25T16:50:55.347Z,8.55
2019-02-25T16:53:21.914Z,9.70
2019-02-25T16:55:49.226Z,8.15
2019-02-25T16:58:16.926Z,9.68
2019-02-25T17:00:43.694Z,6.10
2019-02-25T17:03:11.166Z,9.38
2019-02-25T17:05:40.271Z,9.33
2019-02-25T17:08:10.335Z,6.58
2019-02-25T17:10:38.227Z,11.08
2019-02-25T17:13:05.842Z,8.68
2019-02-25T17:15:33.641Z,10.10
2019-02-25T17:18:00.716Z,7.92
2019-02-25T17:20:28.554Z,8.53
2019-02-25T17:22:55.346Z,11.12
2019-02-25T17:25:21.915Z,9.43
2019-02-25T17:27:48.529Z,8.98
2019-02-25T17:30:17.521Z,9.53
2019-02-25T17:32:46.635Z,10.68
2019-02-25T17:35:13.957Z,11.60
2019-02-25T17:37:40.799Z,9.88
2019-02-25T17:40:09.099Z,9.05
2019-02-25T17:42:37.041Z,8.48
2019-02-25T17:45:07.192Z,10.88
2019-02-25T17:47:35.169Z,9.63
2019-02-25T17:50:06.439Z,10.13
2019-02-25T17:52:33.793Z,11.00
2019-02-25T17:55:01.496Z,10.38
2019-02-25T17:57:29.800Z,12.53
2019-02-25T17:59:57.663Z,10.43
2019-02-25T18:02:40.199Z,9.25
2019-02-25T18:05:06.819Z,10.82
2019-02-25T18:07:33.426Z,12.33
2019-02-25T18:10:01.117Z,14.13
2019-02-25T18:12:29.750Z,11.85
2019-02-25T18:14:58.975Z,13.60
2019-02-25T18:17:25.984Z,12.13
2019-02-25T18:19:54.411Z,11.18
2019-02-25T18:22:21.066Z,11.85
2019-02-25T18:24:48.086Z,10.03
2019-02-25T18:27:15.047Z,10.63
2019-02-25T18:29:44.060Z,12.20
2019-02-25T18:32:11.830Z,10.50
2019-02-25T18:34:38.825Z,12.35
2019-02-25T18:37:07.051Z,13.72
2019-02-25T18:39:33.858Z,16.87
2019-02-25T18:42:01.005Z,12.60
2019-02-25T18:44:27.551Z,13.68
2019-02-25T18:46:54.102Z,12.53
2019-02-25T18:49:20.970Z,11.93
2019-02-25T18:51:47.902Z,13.83
2019-02-25T18:54:16.415Z,18.62
2019-02-25T18:56:44.198Z,19.42
2019-02-25T18:59:15.371Z,21.00
2019-02-25T19:01:39.713Z,15.35
2019-02-25T19:04:07.335Z,15.15
2019-02-25T19:06:34.687Z,17.55
2019-02-25T19:09:01.255Z,16.42
2019-02-25T19:11:28.304Z,15.35
2019-02-25T19:13:56.632Z,16.62
2019-02-25T19:16:24.341Z,15.58
2019-02-25T19:18:50.961Z,14.50
2019-02-25T19:21:17.543Z,22.13
2019-02-25T19:23:46.284Z,44.93
2019-02-25T19:26:14.804Z,38.35
2019-02-25T19:28:44.082Z,20.65
2019-02-25T19:31:09.491Z,24.60
2019-02-25T19:33:37.053Z,35.95
2019-02-25T19:36:07.086Z,27.52
2019-02-25T19:38:36.259Z,22.55
2019-02-25T19:41:02.734Z,18.65
2019-02-25T19:43:29.730Z,20.17
2019-02-25T19:45:57.193Z,18.48
2019-02-25T19:48:28.691Z,23.87
2019-02-25T19:50:54.613Z,19.73
2019-02-25T19:53:22.585Z,17.67
2019-02-25T19:55:51.110Z,21.87
2019-02-25T19:58:17.579Z,18.90
2019-02-25T20:00:44.542Z,21.52
2019-02-25T20:03:13.387Z,16.67
2019-02-25T20:05:43.359Z,22.15
2019-02-25T20:08:08.505Z,19.10
2019-02-25T20:10:35.064Z,20.52
2019-02-25T20:13:08.746Z,23.75
2019-02-25T20:15:37.669Z,29.65
2019-02-25T20:18:03.952Z,27.00
2019-02-25T20:20:34.652Z,31.33
2019-02-25T20:23:03.849Z,25.43
2019-02-25T20:25:30.568Z,28.32
2019-02-25T20:27:59.826Z,21.35
2019-02-25T20:30:28.218Z,19.67
2019-02-25T20:32:54.817Z,18.50
2019-02-25T20:35:22.207Z,19.20
2019-02-25T20:37:53.135Z,16.82
2019-02-25T20:40:21.248Z,15.85
2019-02-25T20:42:50.889Z,18.07
2019-02-25T20:45:21.038Z,22.73
2019-02-25T20:47:48.358Z,19.55
2019-02-25T20:50:16.774Z,19.15
2019-02-25T20:52:44.695Z,19.32
2019-02-25T20:55:13.315Z,20.68
2019-02-25T20:57:40.868Z,19.23
2019-02-25T21:00:12.784Z,16.70
2019-02-25T21:02:39.402Z,18.10
2019-02-25T21:05:07.784Z,25.32
2019-02-25T21:07:38.023Z,18.48
2019-02-25T21:10:07.271Z,17.40
2019-02-25T21:12:32.563Z,17.37
2019-02-25T21:14:59.131Z,20.17
2019-02-25T21:17:25.679Z,18.92
2019-02-25T21:19:52.665Z,17.57
2019-02-25T21:22:23.167Z,13.53
2019-02-25T21:24:51.822Z,17.42
2019-02-25T21:27:16.409Z,17.48
2019-02-25T21:29:42.998Z,17.73
2019-02-25T21:32:12.774Z,19.27
2019-02-25T21:34:38.448Z,17.95
2019-02-25T21:37:05.011Z,17.10
2019-02-25T21:39:32.628Z,16.85
2019-02-25T21:42:00.083Z,14.60
2019-02-25T21:44:28.812Z,20.02
2019-02-25T21:46:56.248Z,20.60
2019-02-25T21:49:26.796Z,25.32
2019-02-25T21:51:52.455Z,33.95
2019-02-25T21:54:19.028Z,32.85
2019-02-25T21:56:45.607Z,29.55
2019-02-25T21:59:12.781Z,31.10
2019-02-25T22:01:42.535Z,26.70
2019-02-25T22:04:11.234Z,22.80
2019-02-25T22:06:37.614Z,25.57
2019-02-25T22:09:08.648Z,25.85
2019-02-25T22:11:35.228Z,23.25
2019-02-25T22:14:02.113Z,20.72
2019-02-25T22:16:30.055Z,19.65
2019-02-25T22:18:58.769Z,20.35
2019-02-25T22:21:25.875Z,17.37
2019-02-25T22:23:56.140Z,18.15
2019-02-25T22:26:24.484Z,19.42
2019-02-25T22:28:50.999Z,16.55
2019-02-25T22:31:18.192Z,16.85
2019-02-25T22:33:44.812Z,18.12
2019-02-25T22:36:11.410Z,19.73
2019-02-25T22:38:37.992Z,16.40
2019-02-25T22:41:04.569Z,18.95
2019-02-25T22:43:31.142Z,19.02
2019-02-25T22:45:59.945Z,19.32
2019-02-25T22:48:26.213Z,24.45
2019-02-25T22:50:55.355Z,38.80
2019-02-25T22:53:21.260Z,30.52
2019-02-25T22:55:49.815Z,26.52
2019-02-25T22:58:17.079Z,32.83
2019-02-25T23:00:49.572Z,30.82
2019-02-25T23:03:19.761Z,34.30
2019-02-25T23:05:46.005Z,26.93
2019-02-25T23:08:15.330Z,22.25
2019-02-25T23:10:42.540Z,21.40
2019-02-25T23:13:10.272Z,22.82
2019-02-25T23:15:36.839Z,21.85
2019-02-25T23:18:05.544Z,21.77
2019-02-25T23:20:33.913Z,26.15
2019-02-25T23:23:03.660Z,22.02
2019-02-25T23:25:28.794Z,22.40
2019-02-25T23:27:56.190Z,22.10
2019-02-25T23:30:24.002Z,28.52
2019-02-25T23:32:52.370Z,17.90
2019-02-25T23:35:20.853Z,20.12
2019-02-25T23:37:49.607Z,19.50
2019-02-25T23:40:16.778Z,20.50
2019-02-25T23:42:44.346Z,23.18
2019-02-25T23:45:13.009Z,24.92
2019-02-25T23:47:40.473Z,21.75
2019-02-25T23:50:08.703Z,28.87
2019-02-25T23:52:37.474Z,21.93
2019-02-25T23:55:05.161Z,23.75
2019-02-25T23:57:32.694Z,18.92
2019-02-25T23:59:59.384Z,21.35
